sensor_id;sensor_type;location;lat;lon;timestamp;pressure;altitude;pressure_sealevel;temperature;humidity
18264;BME280;9258;48.668;9.172;2022-08-16T00:00:04;95941.97;;;18.94;88.73
18264;BME280;9258;48.668;9.172;2022-08-16T00:03:07;95938.91;;;18.87;88.74
18264;BME280;9258;48.668;9.172;2022-08-16T00:06:09;95941.84;;;18.86;89.24
18264;BME280;9258;48.668;9.172;2022-08-16T00:09:11;95941.56;;;18.87;89.28
18264;BME280;9258;48.668;9.172;2022-08-16T00:12:13;95950.59;;;18.86;89.22
18264;BME280;9258;48.668;9.172;2022-08-16T00:15:20;95947.84;;;18.78;89.45
18264;BME280;9258;48.668;9.172;2022-08-16T00:18:22;95945.91;;;18.69;90.10
18264;BME280;9258;48.668;9.172;2022-08-16T00:21:23;95948.13;;;18.62;90.24
18264;BME280;9258;48.668;9.172;2022-08-16T00:24:25;95954.59;;;18.56;91.43
18264;BME280;9258;48.668;9.172;2022-08-16T00:27:27;95953.88;;;18.51;92.48
18264;BME280;9258;48.668;9.172;2022-08-16T00:30:30;95948.69;;;18.46;92.15
18264;BME280;9258;48.668;9.172;2022-08-16T00:33:32;95961.44;;;18.44;91.79
18264;BME280;9258;48.668;9.172;2022-08-16T00:36:33;95966.25;;;18.42;91.46
18264;BME280;9258;48.668;9.172;2022-08-16T00:39:34;95962.09;;;18.35;92.61
18264;BME280;9258;48.668;9.172;2022-08-16T00:42:36;95960.63;;;18.29;92.24
18264;BME280;9258;48.668;9.172;2022-08-16T00:45:44;95957.28;;;18.24;94.20
18264;BME280;9258;48.668;9.172;2022-08-16T00:48:50;95961.88;;;18.18;92.69
18264;BME280;9258;48.668;9.172;2022-08-16T00:51:52;95958.94;;;18.20;94.34
18264;BME280;9258;48.668;9.172;2022-08-16T00:54:54;95958.44;;;18.18;94.85
18264;BME280;9258;48.668;9.172;2022-08-16T00:57:56;95964.31;;;18.15;94.78
18264;BME280;9258;48.668;9.172;2022-08-16T01:01:00;95963.81;;;18.13;95.74
18264;BME280;9258;48.668;9.172;2022-08-16T01:04:03;95966.84;;;18.06;95.83
18264;BME280;9258;48.668;9.172;2022-08-16T01:07:05;95965.69;;;18.12;95.28
18264;BME280;9258;48.668;9.172;2022-08-16T01:10:08;95954.81;;;18.14;94.91
18264;BME280;9258;48.668;9.172;2022-08-16T01:13:13;95961.50;;;18.11;95.77
18264;BME280;9258;48.668;9.172;2022-08-16T01:16:20;95957.56;;;18.09;96.78
18264;BME280;9258;48.668;9.172;2022-08-16T01:19:26;95959.69;;;18.07;97.19
18264;BME280;9258;48.668;9.172;2022-08-16T01:22:43;95961.84;;;18.05;97.61
18264;BME280;9258;48.668;9.172;2022-08-16T01:25:50;95963.63;;;18.09;98.10
18264;BME280;9258;48.668;9.172;2022-08-16T01:28:53;95959.41;;;18.08;98.75
18264;BME280;9258;48.668;9.172;2022-08-16T01:31:55;95955.88;;;18.13;98.42
18264;BME280;9258;48.668;9.172;2022-08-16T01:34:56;95957.56;;;18.09;99.19
18264;BME280;9258;48.668;9.172;2022-08-16T01:38:14;95955.19;;;18.07;98.86
18264;BME280;9258;48.668;9.172;2022-08-16T01:41:20;95953.63;;;18.06;100.00
18264;BME280;9258;48.668;9.172;2022-08-16T01:44:22;95958.16;;;18.19;99.45
18264;BME280;9258;48.668;9.172;2022-08-16T01:47:23;95959.44;;;18.22;99.09
18264;BME280;9258;48.668;9.172;2022-08-16T01:50:25;95961.88;;;18.18;99.17
18264;BME280;9258;48.668;9.172;2022-08-16T01:53:28;95961.88;;;18.18;99.66
18264;BME280;9258;48.668;9.172;2022-08-16T01:56:32;95961.09;;;18.18;100.00
18264;BME280;9258;48.668;9.172;2022-08-16T01:59:35;95964.41;;;18.10;100.00
18264;BME280;9258;48.668;9.172;2022-08-16T02:02:37;95963.03;;;18.12;100.00
18264;BME280;9258;48.668;9.172;2022-08-16T02:05:39;95963.03;;;18.12;100.00
18264;BME280;9258;48.668;9.172;2022-08-16T02:08:41;95963.75;;;18.18;100.00
18264;BME280;9258;48.668;9.172;2022-08-16T02:11:46;95962.66;;;18.19;100.00
18264;BME280;9258;48.668;9.172;2022-08-16T02:14:47;95959.56;;;18.30;100.00
18264;BME280;9258;48.668;9.172;2022-08-16T02:17:50;95960.84;;;18.33;100.00
18264;BME280;9258;48.668;9.172;2022-08-16T02:20:52;95960.84;;;18.33;100.00
18264;BME280;9258;48.668;9.172;2022-08-16T02:23:54;95959.66;;;18.39;100.00
18264;BME280;9258;48.668;9.172;2022-08-16T02:26:57;95953.97;;;18.32;100.00
18264;BME280;9258;48.668;9.172;2022-08-16T02:29:58;95951.81;;;18.34;100.00
18264;BME280;9258;48.668;9.172;2022-08-16T02:33:00;95957.19;;;18.29;100.00
18264;BME280;9258;48.668;9.172;2022-08-16T02:36:02;95947.00;;;18.22;100.00
18264;BME280;9258;48.668;9.172;2022-08-16T02:39:05;95953.94;;;18.18;100.00
18264;BME280;9258;48.668;9.172;2022-08-16T02:42:08;95953.84;;;18.23;100.00
18264;BME280;9258;48.668;9.172;2022-08-16T02:45:10;95959.13;;;18.23;100.00
18264;BME280;9258;48.668;9.172;2022-08-16T02:48:11;95942.66;;;18.13;100.00
18264;BME280;9258;48.668;9.172;2022-08-16T02:51:13;95943.63;;;18.03;100.00
18264;BME280;9258;48.668;9.172;2022-08-16T02:54:14;95942.53;;;18.04;100.00
18264;BME280;9258;48.668;9.172;2022-08-16T02:57:17;95942.53;;;18.04;100.00
18264;BME280;9258;48.668;9.172;2022-08-16T03:00:19;95938.31;;;18.03;100.00
18264;BME280;9258;48.668;9.172;2022-08-16T03:03:21;95936.75;;;18.02;100.00
18264;BME280;9258;48.668;9.172;2022-08-16T03:06:22;95935.19;;;18.01;100.00
18264;BME280;9258;48.668;9.172;2022-08-16T03:09:23;95940.75;;;17.99;100.00
18264;BME280;9258;48.668;9.172;2022-08-16T03:12:27;95928.31;;;18.00;100.00
18264;BME280;9258;48.668;9.172;2022-08-16T03:15:29;95929.41;;;17.99;100.00
18264;BME280;9258;48.668;9.172;2022-08-16T03:18:32;95930.50;;;17.98;100.00
18264;BME280;9258;48.668;9.172;2022-08-16T03:21:34;95920.81;;;18.07;100.00
18264;BME280;9258;48.668;9.172;2022-08-16T03:24:36;95918.53;;;18.14;100.00
18264;BME280;9258;48.668;9.172;2022-08-16T03:27:39;95914.50;;;18.03;100.00
18264;BME280;9258;48.668;9.172;2022-08-16T03:30:41;95915.09;;;18.00;100.00
18264;BME280;9258;48.668;9.172;2022-08-16T03:33:43;95922.06;;;17.96;100.00
18264;BME280;9258;48.668;9.172;2022-08-16T03:36:44;95918.91;;;17.94;100.00
18264;BME280;9258;48.668;9.172;2022-08-16T03:39:46;95920.25;;;17.91;100.00
18264;BME280;9258;48.668;9.172;2022-08-16T03:42:48;95922.41;;;17.89;100.00
18264;BME280;9258;48.668;9.172;2022-08-16T03:45:51;95921.91;;;17.87;100.00
18264;BME280;9258;48.668;9.172;2022-08-16T03:48:52;95917.22;;;17.84;100.00
18264;BME280;9258;48.668;9.172;2022-08-16T03:51:54;95920.94;;;17.83;100.00
18264;BME280;9258;48.668;9.172;2022-08-16T03:54:56;95919.09;;;17.84;100.00
18264;BME280;9258;48.668;9.172;2022-08-16T03:57:59;95914.16;;;17.77;100.00
18264;BME280;9258;48.668;9.172;2022-08-16T04:01:00;95925.09;;;17.71;100.00
18264;BME280;9258;48.668;9.172;2022-08-16T04:04:02;95932.75;;;17.72;100.00
18264;BME280;9258;48.668;9.172;2022-08-16T04:07:05;95930.91;;;17.73;100.00
18264;BME280;9258;48.668;9.172;2022-08-16T04:10:09;95926.88;;;17.75;100.00
18264;BME280;9258;48.668;9.172;2022-08-16T04:13:12;95919.44;;;17.77;100.00
18264;BME280;9258;48.668;9.172;2022-08-16T04:16:14;95926.44;;;17.87;100.00
18264;BME280;9258;48.668;9.172;2022-08-16T04:19:16;95926.56;;;17.95;100.00
18264;BME280;9258;48.668;9.172;2022-08-16T04:22:19;95936.19;;;18.05;100.00
18264;BME280;9258;48.668;9.172;2022-08-16T04:25:20;95937.69;;;18.11;100.00
18264;BME280;9258;48.668;9.172;2022-08-16T04:28:23;95935.13;;;18.20;100.00
18264;BME280;9258;48.668;9.172;2022-08-16T04:31:25;95938.78;;;18.38;100.00
18264;BME280;9258;48.668;9.172;2022-08-16T04:34:29;95941.84;;;18.45;100.00
18264;BME280;9258;48.668;9.172;2022-08-16T04:37:31;95944.38;;;18.50;100.00
18264;BME280;9258;48.668;9.172;2022-08-16T04:40:33;95951.41;;;18.59;100.00
18264;BME280;9258;48.668;9.172;2022-08-16T04:43:35;95961.78;;;18.69;100.00
18264;BME280;9258;48.668;9.172;2022-08-16T04:46:38;95965.09;;;18.75;100.00
18264;BME280;9258;48.668;9.172;2022-08-16T04:49:39;95959.59;;;18.85;100.00
18264;BME280;9258;48.668;9.172;2022-08-16T04:52:43;95952.63;;;19.03;100.00
18264;BME280;9258;48.668;9.172;2022-08-16T04:55:44;95965.00;;;19.08;100.00
18264;BME280;9258;48.668;9.172;2022-08-16T04:58:48;95960.09;;;19.15;100.00
18264;BME280;9258;48.668;9.172;2022-08-16T05:01:49;95957.94;;;19.17;100.00
18264;BME280;9258;48.668;9.172;2022-08-16T05:04:55;95963.78;;;19.27;100.00
18264;BME280;9258;48.668;9.172;2022-08-16T05:07:57;95962.50;;;19.25;100.00
18264;BME280;9258;48.668;9.172;2022-08-16T05:10:59;95966.75;;;19.26;100.00
18264;BME280;9258;48.668;9.172;2022-08-16T05:14:03;95975.38;;;19.31;100.00
18264;BME280;9258;48.668;9.172;2022-08-16T05:17:04;95980.75;;;19.40;99.77
18264;BME280;9258;48.668;9.172;2022-08-16T05:20:07;95982.50;;;19.58;98.27
18264;BME280;9258;48.668;9.172;2022-08-16T05:23:09;95973.88;;;19.53;98.78
18264;BME280;9258;48.668;9.172;2022-08-16T05:26:11;95982.78;;;19.57;98.09
18264;BME280;9258;48.668;9.172;2022-08-16T05:29:14;95982.19;;;19.60;98.19
18264;BME280;9258;48.668;9.172;2022-08-16T05:32:15;95983.03;;;19.69;97.20
18264;BME280;9258;48.668;9.172;2022-08-16T05:35:17;95971.72;;;19.77;95.90
18264;BME280;9258;48.668;9.172;2022-08-16T05:38:18;95971.53;;;19.73;96.66
18264;BME280;9258;48.668;9.172;2022-08-16T05:41:26;95973.59;;;19.76;96.17
18264;BME280;9258;48.668;9.172;2022-08-16T05:44:29;95979.09;;;19.80;96.60
18264;BME280;9258;48.668;9.172;2022-08-16T05:47:30;95977.16;;;19.94;95.75
18264;BME280;9258;48.668;9.172;2022-08-16T05:50:32;95978.81;;;20.35;92.80
18264;BME280;9258;48.668;9.172;2022-08-16T05:53:33;95976.59;;;20.51;92.31
18264;BME280;9258;48.668;9.172;2022-08-16T05:56:35;95986.19;;;20.69;90.38
18264;BME280;9258;48.668;9.172;2022-08-16T05:59:38;95978.91;;;20.83;89.61
18264;BME280;9258;48.668;9.172;2022-08-16T06:02:40;95987.25;;;20.99;87.82
18264;BME280;9258;48.668;9.172;2022-08-16T06:05:42;95975.72;;;21.12;86.36
18264;BME280;9258;48.668;9.172;2022-08-16T06:08:44;95991.50;;;21.08;87.29
18264;BME280;9258;48.668;9.172;2022-08-16T06:11:45;95993.59;;;21.29;85.32
18264;BME280;9258;48.668;9.172;2022-08-16T06:14:48;95989.22;;;21.33;85.89
18264;BME280;9258;48.668;9.172;2022-08-16T06:17:50;95991.75;;;21.46;84.48
18264;BME280;9258;48.668;9.172;2022-08-16T06:20:51;95993.94;;;21.53;84.27
18264;BME280;9258;48.668;9.172;2022-08-16T06:23:54;95995.19;;;21.47;85.21
18264;BME280;9258;48.668;9.172;2022-08-16T06:26:55;95994.56;;;21.50;85.08
18264;BME280;9258;48.668;9.172;2022-08-16T06:29:58;95992.41;;;21.69;84.21
18264;BME280;9258;48.668;9.172;2022-08-16T06:33:00;95991.28;;;21.79;83.32
18264;BME280;9258;48.668;9.172;2022-08-16T06:36:03;95984.72;;;22.02;82.70
18264;BME280;9258;48.668;9.172;2022-08-16T06:39:05;95995.06;;;22.04;82.34
18264;BME280;9258;48.668;9.172;2022-08-16T06:42:07;95992.84;;;22.23;82.12
18264;BME280;9258;48.668;9.172;2022-08-16T06:45:10;95995.63;;;22.35;81.47
18264;BME280;9258;48.668;9.172;2022-08-16T06:48:12;95996.13;;;22.46;80.10
18264;BME280;9258;48.668;9.172;2022-08-16T06:51:14;95994.63;;;22.66;79.39
18264;BME280;9258;48.668;9.172;2022-08-16T06:54:15;95998.00;;;22.92;76.75
18264;BME280;9258;48.668;9.172;2022-08-16T06:57:18;96001.53;;;22.67;78.99
18264;BME280;9258;48.668;9.172;2022-08-16T07:00:21;95999.13;;;22.74;78.33
18264;BME280;9258;48.668;9.172;2022-08-16T07:03:23;96003.94;;;22.97;76.54
18264;BME280;9258;48.668;9.172;2022-08-16T07:06:24;95996.63;;;23.15;75.92
18264;BME280;9258;48.668;9.172;2022-08-16T07:09:26;96001.78;;;23.20;75.24
18264;BME280;9258;48.668;9.172;2022-08-16T07:12:29;96000.16;;;23.57;73.55
18264;BME280;9258;48.668;9.172;2022-08-16T07:15:31;96004.84;;;23.81;72.62
18264;BME280;9258;48.668;9.172;2022-08-16T07:18:33;96002.56;;;23.71;72.62
18264;BME280;9258;48.668;9.172;2022-08-16T07:21:35;95990.66;;;23.68;72.36
18264;BME280;9258;48.668;9.172;2022-08-16T07:24:36;95998.53;;;23.86;72.27
18264;BME280;9258;48.668;9.172;2022-08-16T07:27:38;96003.59;;;24.20;70.90
18264;BME280;9258;48.668;9.172;2022-08-16T07:30:42;95995.13;;;24.51;69.34
18264;BME280;9258;48.668;9.172;2022-08-16T07:33:44;95990.91;;;24.62;68.52
18264;BME280;9258;48.668;9.172;2022-08-16T07:36:45;95995.97;;;25.25;64.75
18264;BME280;9258;48.668;9.172;2022-08-16T07:39:47;95990.59;;;25.37;62.62
18264;BME280;9258;48.668;9.172;2022-08-16T07:42:48;95997.38;;;25.83;61.71
18264;BME280;9258;48.668;9.172;2022-08-16T07:45:51;95998.41;;;25.66;60.63
18264;BME280;9258;48.668;9.172;2022-08-16T07:48:52;96003.19;;;26.41;56.85
18264;BME280;9258;48.668;9.172;2022-08-16T07:51:54;95998.88;;;26.83;55.11
18264;BME280;9258;48.668;9.172;2022-08-16T07:54:55;95995.50;;;27.18;53.91
18264;BME280;9258;48.668;9.172;2022-08-16T07:57:57;96003.53;;;27.34;52.67
18264;BME280;9258;48.668;9.172;2022-08-16T08:01:00;96014.69;;;27.51;51.36
18264;BME280;9258;48.668;9.172;2022-08-16T08:04:05;96019.22;;;27.82;49.40
18264;BME280;9258;48.668;9.172;2022-08-16T08:07:08;96019.34;;;28.24;48.96
18264;BME280;9258;48.668;9.172;2022-08-16T08:10:11;96016.84;;;29.00;45.76
18264;BME280;9258;48.668;9.172;2022-08-16T08:13:12;96024.31;;;29.59;44.03
18264;BME280;9258;48.668;9.172;2022-08-16T08:16:17;96026.91;;;28.80;44.92
18264;BME280;9258;48.668;9.172;2022-08-16T08:19:20;96031.31;;;29.37;43.28
18264;BME280;9258;48.668;9.172;2022-08-16T08:22:24;96041.09;;;28.00;46.35
18264;BME280;9258;48.668;9.172;2022-08-16T08:25:26;96038.88;;;28.63;45.25
18264;BME280;9258;48.668;9.172;2022-08-16T08:28:28;96033.09;;;27.84;46.90
18264;BME280;9258;48.668;9.172;2022-08-16T08:31:32;96031.59;;;27.52;47.55
18264;BME280;9258;48.668;9.172;2022-08-16T08:34:35;96037.88;;;27.09;49.60
18264;BME280;9258;48.668;9.172;2022-08-16T08:37:37;96035.19;;;27.09;49.71
18264;BME280;9258;48.668;9.172;2022-08-16T08:40:38;96039.06;;;27.43;50.43
18264;BME280;9258;48.668;9.172;2022-08-16T08:43:40;96042.97;;;29.71;43.12
18264;BME280;9258;48.668;9.172;2022-08-16T08:46:43;96041.38;;;29.67;42.34
18264;BME280;9258;48.668;9.172;2022-08-16T08:49:46;96040.13;;;30.88;40.27
18264;BME280;9258;48.668;9.172;2022-08-16T08:52:48;96039.09;;;31.47;37.52
18264;BME280;9258;48.668;9.172;2022-08-16T08:55:51;96057.81;;;31.70;36.10
18264;BME280;9258;48.668;9.172;2022-08-16T08:58:53;96055.38;;;30.36;38.31
18264;BME280;9258;48.668;9.172;2022-08-16T09:01:56;96059.59;;;28.59;42.29
18264;BME280;9258;48.668;9.172;2022-08-16T09:04:58;96053.38;;;27.82;43.79
18264;BME280;9258;48.668;9.172;2022-08-16T09:08:00;96050.56;;;28.71;42.26
18264;BME280;9258;48.668;9.172;2022-08-16T09:11:01;96046.38;;;30.95;38.49
18264;BME280;9258;48.668;9.172;2022-08-16T09:14:03;96045.84;;;32.65;33.87
18264;BME280;9258;48.668;9.172;2022-08-16T09:17:07;96054.44;;;33.87;32.33
18264;BME280;9258;48.668;9.172;2022-08-16T09:20:10;96058.56;;;34.31;32.38
18264;BME280;9258;48.668;9.172;2022-08-16T09:23:12;96057.06;;;34.96;31.49
18264;BME280;9258;48.668;9.172;2022-08-16T09:26:14;96051.00;;;35.33;30.29
18264;BME280;9258;48.668;9.172;2022-08-16T09:29:16;96047.50;;;35.73;28.61
18264;BME280;9258;48.668;9.172;2022-08-16T09:32:20;96056.03;;;35.34;29.60
18264;BME280;9258;48.668;9.172;2022-08-16T09:35:22;96041.03;;;34.53;30.29
18264;BME280;9258;48.668;9.172;2022-08-16T09:38:24;96046.59;;;32.47;33.29
18264;BME280;9258;48.668;9.172;2022-08-16T09:41:26;96040.03;;;31.69;34.35
18264;BME280;9258;48.668;9.172;2022-08-16T09:44:27;96047.06;;;30.85;35.72
18264;BME280;9258;48.668;9.172;2022-08-16T09:47:31;96049.56;;;29.48;39.05
18264;BME280;9258;48.668;9.172;2022-08-16T09:50:32;96049.75;;;28.90;39.96
18264;BME280;9258;48.668;9.172;2022-08-16T09:53:35;96045.50;;;28.27;41.51
18264;BME280;9258;48.668;9.172;2022-08-16T09:56:38;96046.16;;;28.21;42.07
18264;BME280;9258;48.668;9.172;2022-08-16T09:59:40;96041.91;;;28.20;41.91
18264;BME280;9258;48.668;9.172;2022-08-16T10:02:43;96045.50;;;27.89;42.48
18264;BME280;9258;48.668;9.172;2022-08-16T10:05:47;96039.94;;;27.63;43.59
18264;BME280;9258;48.668;9.172;2022-08-16T10:08:49;96036.56;;;27.85;43.04
18264;BME280;9258;48.668;9.172;2022-08-16T10:11:50;96040.88;;;27.89;42.70
18264;BME280;9258;48.668;9.172;2022-08-16T10:15:11;96039.72;;;27.90;43.14
18264;BME280;9258;48.668;9.172;2022-08-16T10:18:15;96038.06;;;28.59;42.57
18264;BME280;9258;48.668;9.172;2022-08-16T10:21:16;96039.75;;;29.13;40.88
18264;BME280;9258;48.668;9.172;2022-08-16T10:24:18;96035.19;;;28.72;41.42
18264;BME280;9258;48.668;9.172;2022-08-16T10:27:20;96039.13;;;28.78;41.18
18264;BME280;9258;48.668;9.172;2022-08-16T10:30:21;96050.13;;;28.88;40.38
18264;BME280;9258;48.668;9.172;2022-08-16T10:33:25;96042.31;;;28.41;41.16
18264;BME280;9258;48.668;9.172;2022-08-16T10:36:27;96047.56;;;30.27;38.57
18264;BME280;9258;48.668;9.172;2022-08-16T10:39:29;96049.03;;;33.16;33.10
18264;BME280;9258;48.668;9.172;2022-08-16T10:42:31;96055.63;;;33.47;32.87
18264;BME280;9258;48.668;9.172;2022-08-16T10:45:33;96043.34;;;32.13;34.24
18264;BME280;9258;48.668;9.172;2022-08-16T10:48:36;96053.38;;;32.09;32.87
18264;BME280;9258;48.668;9.172;2022-08-16T10:51:38;96052.09;;;31.31;34.64
18264;BME280;9258;48.668;9.172;2022-08-16T10:54:39;96053.94;;;31.20;34.42
18264;BME280;9258;48.668;9.172;2022-08-16T10:57:41;96050.75;;;30.66;35.97
18264;BME280;9258;48.668;9.172;2022-08-16T11:00:43;96054.56;;;30.32;37.28
18264;BME280;9258;48.668;9.172;2022-08-16T11:03:47;96052.38;;;30.11;37.36
18264;BME280;9258;48.668;9.172;2022-08-16T11:06:49;96049.75;;;30.15;36.54
18264;BME280;9258;48.668;9.172;2022-08-16T11:09:50;96050.03;;;30.73;35.47
18264;BME280;9258;48.668;9.172;2022-08-16T11:12:51;96048.34;;;30.98;35.63
18264;BME280;9258;48.668;9.172;2022-08-16T11:15:54;96044.78;;;33.51;30.68
18264;BME280;9258;48.668;9.172;2022-08-16T11:18:57;96042.84;;;33.80;31.04
18264;BME280;9258;48.668;9.172;2022-08-16T11:21:59;96046.25;;;32.67;31.60
18264;BME280;9258;48.668;9.172;2022-08-16T11:25:01;96057.88;;;33.95;30.66
18264;BME280;9258;48.668;9.172;2022-08-16T11:28:04;96053.69;;;33.55;31.09
18264;BME280;9258;48.668;9.172;2022-08-16T11:31:07;96045.63;;;32.08;33.34
18264;BME280;9258;48.668;9.172;2022-08-16T11:34:09;96056.06;;;35.27;28.80
18264;BME280;9258;48.668;9.172;2022-08-16T11:37:11;96052.50;;;36.81;26.04
18264;BME280;9258;48.668;9.172;2022-08-16T11:40:13;96051.25;;;37.82;26.31
18264;BME280;9258;48.668;9.172;2022-08-16T11:43:17;96052.53;;;37.97;24.81
18264;BME280;9258;48.668;9.172;2022-08-16T11:46:19;96045.09;;;38.57;23.76
18264;BME280;9258;48.668;9.172;2022-08-16T11:49:23;96040.25;;;38.05;24.18
18264;BME280;9258;48.668;9.172;2022-08-16T11:52:25;96036.09;;;37.07;25.25
18264;BME280;9258;48.668;9.172;2022-08-16T11:55:27;96035.06;;;37.25;25.33
18264;BME280;9258;48.668;9.172;2022-08-16T11:58:29;96033.06;;;37.29;24.83
18264;BME280;9258;48.668;9.172;2022-08-16T12:01:33;96024.38;;;36.57;25.83
18264;BME280;9258;48.668;9.172;2022-08-16T12:04:36;96016.47;;;36.01;26.04
18264;BME280;9258;48.668;9.172;2022-08-16T12:07:38;96031.44;;;35.45;27.48
18264;BME280;9258;48.668;9.172;2022-08-16T12:10:40;96032.81;;;34.64;28.20
18264;BME280;9258;48.668;9.172;2022-08-16T12:13:44;96030.88;;;36.02;26.31
18264;BME280;9258;48.668;9.172;2022-08-16T12:16:45;96029.66;;;37.68;25.31
18264;BME280;9258;48.668;9.172;2022-08-16T12:19:48;96034.03;;;38.44;24.07
18264;BME280;9258;48.668;9.172;2022-08-16T12:22:50;96033.66;;;37.83;24.99
18264;BME280;9258;48.668;9.172;2022-08-16T12:25:51;96027.56;;;35.43;27.36
18264;BME280;9258;48.668;9.172;2022-08-16T12:28:53;96017.59;;;33.72;29.38
18264;BME280;9258;48.668;9.172;2022-08-16T12:31:54;96013.59;;;34.26;29.38
18264;BME280;9258;48.668;9.172;2022-08-16T12:34:57;96016.59;;;36.55;26.86
18264;BME280;9258;48.668;9.172;2022-08-16T12:37:59;96024.50;;;37.73;25.10
18264;BME280;9258;48.668;9.172;2022-08-16T12:41:01;96013.22;;;37.01;25.40
18264;BME280;9258;48.668;9.172;2022-08-16T12:44:03;96007.34;;;37.49;24.57
18264;BME280;9258;48.668;9.172;2022-08-16T12:47:05;96009.19;;;37.33;25.20
18264;BME280;9258;48.668;9.172;2022-08-16T12:50:26;95998.03;;;37.00;25.91
18264;BME280;9258;48.668;9.172;2022-08-16T12:53:28;95997.41;;;37.39;24.72
18264;BME280;9258;48.668;9.172;2022-08-16T12:56:33;95996.78;;;37.75;24.15
18264;BME280;9258;48.668;9.172;2022-08-16T12:59:35;95989.28;;;37.79;23.91
18264;BME280;9258;48.668;9.172;2022-08-16T13:02:36;95985.97;;;38.07;22.99
18264;BME280;9258;48.668;9.172;2022-08-16T13:05:39;95988.69;;;38.07;23.51
18264;BME280;9258;48.668;9.172;2022-08-16T13:08:41;95984.25;;;36.30;24.18
18264;BME280;9258;48.668;9.172;2022-08-16T13:11:48;95984.63;;;36.32;25.01
18264;BME280;9258;48.668;9.172;2022-08-16T13:14:52;95982.38;;;36.24;24.98
18264;BME280;9258;48.668;9.172;2022-08-16T13:17:55;95984.94;;;35.32;25.54
18264;BME280;9258;48.668;9.172;2022-08-16T13:20:58;95981.31;;;35.01;26.07
18264;BME280;9258;48.668;9.172;2022-08-16T13:24:00;95980.72;;;35.24;26.87
18264;BME280;9258;48.668;9.172;2022-08-16T13:27:01;95985.72;;;34.85;27.16
18264;BME280;9258;48.668;9.172;2022-08-16T13:30:03;95977.06;;;34.97;27.19
18264;BME280;9258;48.668;9.172;2022-08-16T13:33:05;95976.00;;;34.14;28.85
18264;BME280;9258;48.668;9.172;2022-08-16T13:36:10;95972.81;;;34.37;27.87
18264;BME280;9258;48.668;9.172;2022-08-16T13:39:11;95971.28;;;34.32;28.64
18264;BME280;9258;48.668;9.172;2022-08-16T13:42:13;95975.16;;;34.31;28.29
18264;BME280;9258;48.668;9.172;2022-08-16T13:45:15;95966.72;;;34.08;29.16
18264;BME280;9258;48.668;9.172;2022-08-16T13:48:17;95966.69;;;34.12;29.36
18264;BME280;9258;48.668;9.172;2022-08-16T13:51:20;95963.63;;;34.06;28.95
18264;BME280;9258;48.668;9.172;2022-08-16T13:54:23;95946.00;;;33.45;29.11
18264;BME280;9258;48.668;9.172;2022-08-16T13:57:24;95954.53;;;33.43;30.08
18264;BME280;9258;48.668;9.172;2022-08-16T14:00:26;95957.25;;;33.43;29.65
18264;BME280;9258;48.668;9.172;2022-08-16T14:03:27;95944.09;;;33.03;29.16
18264;BME280;9258;48.668;9.172;2022-08-16T14:06:30;95950.69;;;32.73;30.44
18264;BME280;9258;48.668;9.172;2022-08-16T14:09:32;95939.47;;;32.89;30.32
18264;BME280;9258;48.668;9.172;2022-08-16T14:12:36;95939.84;;;32.77;30.42
18264;BME280;9258;48.668;9.172;2022-08-16T14:15:38;95933.22;;;32.21;30.58
18264;BME280;9258;48.668;9.172;2022-08-16T14:18:39;95939.97;;;31.72;30.77
18264;BME280;9258;48.668;9.172;2022-08-16T14:21:42;95936.25;;;31.29;31.84
18264;BME280;9258;48.668;9.172;2022-08-16T14:24:46;95936.66;;;30.80;32.54
18264;BME280;9258;48.668;9.172;2022-08-16T14:27:48;95946.84;;;30.53;32.66
18264;BME280;9258;48.668;9.172;2022-08-16T14:30:50;95939.31;;;30.73;31.45
18264;BME280;9258;48.668;9.172;2022-08-16T14:33:51;95929.69;;;31.27;31.27
18264;BME280;9258;48.668;9.172;2022-08-16T14:36:54;95931.16;;;31.13;31.10
18264;BME280;9258;48.668;9.172;2022-08-16T14:39:56;95933.25;;;31.45;31.52
18264;BME280;9258;48.668;9.172;2022-08-16T14:42:58;95935.00;;;31.81;30.59
18264;BME280;9258;48.668;9.172;2022-08-16T14:46:00;95930.38;;;31.89;31.15
18264;BME280;9258;48.668;9.172;2022-08-16T14:49:06;95928.09;;;31.98;31.37
18264;BME280;9258;48.668;9.172;2022-08-16T14:52:12;95929.69;;;32.10;30.15
18264;BME280;9258;48.668;9.172;2022-08-16T14:55:14;95931.22;;;32.14;31.08
18264;BME280;9258;48.668;9.172;2022-08-16T14:58:16;95933.59;;;32.23;30.40
18264;BME280;9258;48.668;9.172;2022-08-16T15:01:18;95930.44;;;32.14;30.15
18264;BME280;9258;48.668;9.172;2022-08-16T15:04:20;95930.47;;;32.17;30.81
18264;BME280;9258;48.668;9.172;2022-08-16T15:07:23;95929.66;;;32.13;30.04
18264;BME280;9258;48.668;9.172;2022-08-16T15:10:25;95931.56;;;31.95;30.58
18264;BME280;9258;48.668;9.172;2022-08-16T15:13:27;95920.34;;;31.93;31.04
18264;BME280;9258;48.668;9.172;2022-08-16T15:16:28;95924.97;;;31.89;31.26
18264;BME280;9258;48.668;9.172;2022-08-16T15:19:30;95921.91;;;31.94;30.22
18264;BME280;9258;48.668;9.172;2022-08-16T15:22:35;95922.59;;;31.77;30.58
18264;BME280;9258;48.668;9.172;2022-08-16T15:25:39;95928.00;;;31.77;30.69
18264;BME280;9258;48.668;9.172;2022-08-16T15:28:41;95920.94;;;31.55;31.36
18264;BME280;9258;48.668;9.172;2022-08-16T15:31:43;95924.84;;;31.61;30.86
18264;BME280;9258;48.668;9.172;2022-08-16T15:34:45;95913.13;;;31.35;33.06
18264;BME280;9258;48.668;9.172;2022-08-16T15:37:48;95928.13;;;31.29;32.91
18264;BME280;9258;48.668;9.172;2022-08-16T15:40:51;95933.16;;;31.31;32.80
18264;BME280;9258;48.668;9.172;2022-08-16T15:43:53;95921.94;;;31.22;32.69
18264;BME280;9258;48.668;9.172;2022-08-16T15:46:55;95923.44;;;31.19;32.95
18264;BME280;9258;48.668;9.172;2022-08-16T15:49:56;95924.97;;;31.17;32.72
18264;BME280;9258;48.668;9.172;2022-08-16T15:53:04;95935.09;;;31.27;32.85
18264;BME280;9258;48.668;9.172;2022-08-16T15:56:08;95933.84;;;31.17;31.85
18264;BME280;9258;48.668;9.172;2022-08-16T15:59:09;95929.50;;;31.05;33.96
18264;BME280;9258;48.668;9.172;2022-08-16T16:02:11;95928.28;;;30.96;33.55
18264;BME280;9258;48.668;9.172;2022-08-16T16:05:13;95929.41;;;30.88;32.93
18264;BME280;9258;48.668;9.172;2022-08-16T16:08:19;95927.03;;;30.79;33.75
18264;BME280;9258;48.668;9.172;2022-08-16T16:11:21;95928.53;;;30.76;33.35
18264;BME280;9258;48.668;9.172;2022-08-16T16:14:22;95931.16;;;30.66;33.50